Airfield :
LOGIN :

Register | Disclaimer

   EN    FR    IT 

 










Legend :    VFR   Marginal VFR   IFR   Intensive IFR   Very Intensive IFR
Visi :
Ceiling :
>= 8 km
>= 3000ft
5 to 8 km
1000 to 3000 ft
1500m to 5 km
500 to 1000 ft
800 to 1500m
200 to 500 ft
< 800m
< 200 ft
Symbols :   Thunderstorms  Fog  Heavy snow  Heavy precipitations  Wind > 20 kt
SIGMETs :     Misc.  Thunderstorms  Icing  Turbulence  Mountain Waves  Volcanic Ashes







- Airport Elevation : 245 ft
- IATA code : BIQ
- Download approach charts


LFBZ - Biarritz

CURRENT METAR :
  • 201730Z AUTO 32006KT CAVOK 22/18 Q1020 TEMPO BKN010

EXPIRED METARs :
  • 201700Z AUTO 33006KT 310V020 CAVOK 23/18 Q1021 NOSIG
  • 201630Z AUTO 33006KT 300V020 CAVOK 23/17 Q1021 NOSIG
  • 201600Z AUTO 33008KT 300V360 CAVOK 23/18 Q1021 NOSIG
  • 201530Z AUTO 32008KT 280V350 CAVOK 23/18 Q1021 NOSIG
  • 201500Z AUTO 32008KT 290V080 CAVOK 23/18 Q1021 NOSIG

TAF TAF LFBZ
Valid from the 20 at 18:00 until the 21 at 18:00 UTC


201700Z 2018/2118 30008KT CAVOK
PROB40
TEMPO 2019/2024 BKN010
BECMG 2100/2102 23005KT BKN010
BECMG 2108/2110 33008KT CAVOK
No reported NOTAMs for that airfield.



MET'MAP, your aeronautical weather chart ! - Copyright ORBIFLY December 2007 - Disclaimer

ORBIFLY MET'MAP TEAM :

Programming & Development : Alexandra Zaïnal
Concept & Development : Baudouin d'Aumeries
Co-Development & Prog : Marc-Olivier Méhu
Technical & hardware support : Manuel Goepfert

Contact : metmap@orbifly.com




SOURCES & CREDITS :

   NOAA